Time;durP1;ratioP1;P1;durP2;ratioP2;P2;SDS_P1;SDS_P2;PMS_P1;PMS_P2;Temp;Humidity;BMP_temperature;BMP_pressure;BME280_temperature;BME280_humidity;BME280_pressure;Samples;Min_cycle;Max_cycle;Signal;HPM_P1;HPM_P2
2021/08/01 00:01:47;;;;;;;;;;;;;;;;;;6256495;22;19948;-94
2021/08/01 00:04:12;;;;;;;;;;;;;;;;;;6256120;23;19917;-93
2021/08/01 00:06:37;;;;;;;;;;;;;;;;;;6252319;23;20239;-93
2021/08/01 00:09:03;;;;;;;;;;;;;;;;;;6258034;23;19986;-94
2021/08/01 00:11:29;;;;;;;;;;;;;;;;;;6253273;23;19934;-93
2021/08/01 00:13:55;;;;;;;;;;;;;;;;;;6254526;23;19912;-94
2021/08/01 00:16:22;;;;;;;;;;;;;;;;;;6252576;22;20279;-93
2021/08/01 00:18:47;;;;;;;;;;;;;;;;;;6252492;23;19911;-93
2021/08/01 00:21:12;;;;;;;;;;;;;;;;;;6256437;23;19902;-95
2021/08/01 00:23:38;;;;;;;;;;;;;;;;;;6260433;23;19918;-93
2021/08/01 00:26:03;;;;;;;;;;;;;;;;;;6254484;23;19902;-93
2021/08/01 00:28:29;;;;;;;;;;;;;;;;;;6254370;23;19918;-96
2021/08/01 00:30:54;;;;;;;;;;;;;;;;;;6253125;22;19915;-93
2021/08/01 00:33:19;;;;;;;;;;;;;;;;;;6254377;23;20231;-92
2021/08/01 00:35:45;;;;;;;;;;;;;;;;;;6249147;23;20327;-92
2021/08/01 00:38:10;;;;;;;;;;;;;;;;;;6258045;23;19935;-93
2021/08/01 00:40:36;;;;;;;;;;;;;;;;;;6256389;22;20328;-94
2021/08/01 00:43:01;;;;;;;;;;;;;;;;;;6256600;23;19895;-92
2021/08/01 00:45:27;;;;;;;;;;;;;;;;;;6254926;22;20347;-93
2021/08/01 00:47:52;;;;;;;;;;;;;;;;;;6258060;22;19916;-93
2021/08/01 00:50:18;;;;;;;;;;;;;;;;;;6257398;23;19912;-92
2021/08/01 00:52:43;;;;;;;;;;;;;;;;;;6255603;22;20343;-92
2021/08/01 00:55:09;;;;;;;;;;;;;;;;;;6257411;23;19943;-92
2021/08/01 00:57:35;;;;;;;;;;;;;;;;;;6253433;23;19938;-95
2021/08/01 01:00:01;;;;;;;;;;;;;;;;;;6257928;23;19927;-94
2021/08/01 01:02:37;;;;;;;;;;;;;;;;;;6255974;22;19912;-96
2021/08/01 01:05:05;;;;;;;;;;;;;;;;;;6255184;23;19966;-92
2021/08/01 01:07:37;;;;;;;;;;;;;;;;;;6255233;23;19911;-92
2021/08/01 01:10:07;;;;;;;;;;;;;;;;;;6255926;22;19911;-92
2021/08/01 01:12:34;;;;;;;;;;;;;;;;;;6258051;22;19910;-92
2021/08/01 01:15:00;;;;;;;;;;;;;;;;;;6256698;23;19935;-94
2021/08/01 01:17:28;;;;;;;;;;;;;;;;;;6250763;22;19912;-91
2021/08/01 01:20:08;;;;;;;;;;;;;;;;;;6252035;23;19911;-93
2021/08/01 01:22:52;;;;;;;;;;;;;;;;;;6254327;23;19911;-93
2021/08/01 01:25:33;;;;;;;;;;;;;;;;;;6250523;23;19914;-92
2021/08/01 01:28:09;;;;;;;;;;;;;;;;;;6252249;23;19911;-92
2021/08/01 01:30:34;;;;;;;;;;;;;;;;;;6251218;23;19913;-93
2021/08/01 01:33:05;;;;;;;;;;;;;;;;;;6250637;23;19907;-96
2021/08/01 01:35:36;;;;;;;;;;;;;;;;;;6252511;23;20293;-96
2021/08/01 01:38:04;;;;;;;;;;;;;;;;;;6248206;23;19927;-96
2021/08/01 01:40:30;;;;;;;;;;;;;;;;;;6250248;23;19919;-91
2021/08/01 01:42:57;;;;;;;;;;;;;;;;;;6249382;22;19912;-92
2021/08/01 01:45:22;;;;;;;;;;;;;;;;;;6247503;23;19958;-93
2021/08/01 01:47:51;;;;;;;;;;;;;;;;;;6249762;23;19923;-94
2021/08/01 01:50:17;;;;;;;;;;;;;;;;;;6251040;23;19912;-91
2021/08/01 01:52:47;;;;;;;;;;;;;;;;;;6248871;23;19979;-92
2021/08/01 01:55:13;;;;;;;;;;;;;;;;;;6249596;23;19990;-96
2021/08/01 01:57:39;;;;;;;;;;;;;;;;;;6249338;23;20324;-92
2021/08/01 02:00:04;;;;;;;;;;;;;;;;;;6251254;23;19919;-94
2021/08/01 02:02:30;;;;;;;;;;;;;;;;;;6250716;23;19911;-96
2021/08/01 02:04:56;;;;;;;;;;;;;;;;;;6250447;23;20042;-93
2021/08/01 02:07:21;;;;;;;;;;;;;;;;;;6249170;23;19912;-92
2021/08/01 02:09:50;;;;;;;;;;;;;;;;;;6255846;23;19915;-93
2021/08/01 02:12:17;;;;;;;;;;;;;;;;;;6252047;23;19950;-92
2021/08/01 02:15:05;;;;;;;;;;;;;;;;;;6255214;23;19896;-96
2021/08/01 02:17:42;;;;;;;;;;;;;;;;;;6255373;23;19918;-92
2021/08/01 02:20:08;;;;;;;;;;;;;;;;;;6251950;23;20289;-92
2021/08/01 02:22:36;;;;;;;;;;;;;;;;;;6258012;23;19912;-96
2021/08/01 02:25:02;;;;;;;;;;;;;;;;;;6253775;23;19912;-92
2021/08/01 02:27:34;;;;;;;;;;;;;;;;;;6257571;23;19919;-92
2021/08/01 02:30:00;;;;;;;;;;;;;;;;;;6258455;23;19923;-92
2021/08/01 02:32:26;;;;;;;;;;;;;;;;;;6252782;23;19920;-92
2021/08/01 02:34:52;;;;;;;;;;;;;;;;;;6257520;23;20280;-93
2021/08/01 02:37:18;;;;;;;;;;;;;;;;;;6255740;23;19922;-93
2021/08/01 02:39:47;;;;;;;;;;;;;;;;;;6259131;22;19911;-95
2021/08/01 02:42:13;;;;;;;;;;;;;;;;;;6252285;22;19922;-92
2021/08/01 02:44:39;;;;;;;;;;;;;;;;;;6257443;22;19950;-95
2021/08/01 02:47:11;;;;;;;;;;;;;;;;;;6260719;23;20326;-92
2021/08/01 02:49:42;;;;;;;;;;;;;;;;;;6253867;22;19938;-93
2021/08/01 02:52:10;;;;;;;;;;;;;;;;;;6260748;22;20235;-93
2021/08/01 02:54:37;;;;;;;;;;;;;;;;;;6267128;22;19963;-96
2021/08/01 02:57:22;;;;;;;;;;;;;;;;;;6257810;22;19943;-92
2021/08/01 02:59:48;;;;;;;;;;;;;;;;;;6257651;23;19916;-91
2021/08/01 03:02:13;;;;;;;;;;;;;;;;;;6258404;22;19899;-92
2021/08/01 03:04:42;;;;;;;;;;;;;;;;;;6257201;22;19916;-93
2021/08/01 03:07:08;;;;;;;;;;;;;;;;;;6258744;22;19919;-92
2021/08/01 03:09:33;;;;;;;;;;;;;;;;;;6245427;22;20240;-92
2021/08/01 03:12:09;;;;;;;;;;;;;;;;;;6248083;23;20277;-92
2021/08/01 03:14:40;;;;;;;;;;;;;;;;;;6247922;23;20244;-91
2021/08/01 03:17:05;;;;;;;;;;;;;;;;;;6252593;23;19943;-96
2021/08/01 03:20:18;;;;;;;;;;;;;;;;;;6254308;23;19957;-91
2021/08/01 03:22:18;;;;;;;;;;;;;;;;;;6234107;22;19923;-93
2021/08/01 03:24:46;;;;;;;;;;;;;;;;;;6245519;23;20251;-96
2021/08/01 03:27:15;;;;;;;;;;;;;;;;;;6250904;23;20338;-93
2021/08/01 03:32:57;;;;;;;;;;;;;;;;;;6249489;22;19904;-93
2021/08/01 03:35:23;;;;;;;;;;;;;;;;;;6255207;22;19944;-93
2021/08/01 03:37:48;;;;;;;;;;;;;;;;;;6254356;22;19920;-93
2021/08/01 03:40:17;;;;;;;;;;;;;;;;;;6257722;22;19911;-91
2021/08/01 03:42:42;;;;;;;;;;;;;;;;;;6257965;22;19919;-93
2021/08/01 03:45:08;;;;;;;;;;;;;;;;;;6260488;22;19912;-93
2021/08/01 03:47:34;;;;;;;;;;;;;;;;;;6257480;22;19995;-94
2021/08/01 03:49:59;;;;;;;;;;;;;;;;;;6253099;23;19942;-94
2021/08/01 03:52:25;;;;;;;;;;;;;;;;;;6253859;22;20333;-94
2021/08/01 03:54:51;;;;;;;;;;;;;;;;;;6257841;22;19899;-93
2021/08/01 03:57:42;;;;;;;;;;;;;;;;;;6258116;22;19915;-91
2021/08/01 04:00:25;;;;;;;;;;;;;;;;;;6256440;22;19969;-91
2021/08/01 04:02:50;;;;;;;;;;;;;;;;;;6257681;22;19915;-94
2021/08/01 04:05:16;;;;;;;;;;;;;;;;;;6254597;22;19916;-94
2021/08/01 04:07:41;;;;;;;;;;;;;;;;;;6257226;22;19942;-92
2021/08/01 04:10:22;;;;;;;;;;;;;;;;;;6259330;22;19911;-92
2021/08/01 04:12:50;;;;;;;;;;;;;;;;;;6251443;22;19915;-90
2021/08/01 04:15:16;;;;;;;;;;;;;;;;;;6257338;22;19966;-93
2021/08/01 04:17:41;;;;;;;;;;;;;;;;;;6258219;22;19915;-92
2021/08/01 04:20:07;;;;;;;;;;;;;;;;;;6253687;22;19939;-96
2021/08/01 04:22:35;;;;;;;;;;;;;;;;;;6259089;22;19899;-92
2021/08/01 04:25:01;;;;;;;;;;;;;;;;;;6255800;22;19911;-92
2021/08/01 04:27:26;;;;;;;;;;;;;;;;;;6255654;23;19911;-92
2021/08/01 04:29:51;;;;;;;;;;;;;;;;;;6249653;23;19986;-92
2021/08/01 04:32:17;;;;;;;;;;;;;;;;;;6249060;23;19919;-96
2021/08/01 04:34:42;;;;;;;;;;;;;;;;;;6252017;23;20277;-93
2021/08/01 04:37:08;;;;;;;;;;;;;;;;;;6248970;23;19968;-96
2021/08/01 04:39:34;;;;;;;;;;;;;;;;;;6244441;23;20239;-92
2021/08/01 04:41:59;;;;;;;;;;;;;;;;;;6247236;23;19968;-92
2021/08/01 04:44:25;;;;;;;;;;;;;;;;;;6244567;23;19911;-96
2021/08/01 04:46:53;;;;;;;;;;;;;;;;;;6245268;23;19911;-92
2021/08/01 04:49:18;;;;;;;;;;;;;;;;;;6248521;23;19915;-96
2021/08/01 04:51:44;;;;;;;;;;;;;;;;;;6246377;23;19919;-96
2021/08/01 04:54:09;;;;;;;;;;;;;;;;;;6249673;23;19918;-89
2021/08/01 04:56:35;;;;;;;;;;;;;;;;;;6252452;23;19916;-92
2021/08/01 04:59:00;;;;;;;;;;;;;;;;;;6259301;23;19911;-92
2021/08/01 05:01:28;;;;;;;;;;;;;;;;;;6255710;23;19943;-92
2021/08/01 05:03:54;;;;;;;;;;;;;;;;;;6256491;22;20263;-94
2021/08/01 05:06:19;;;;;;;;;;;;;;;;;;6261960;22;19935;-92
2021/08/01 05:08:45;;;;;;;;;;;;;;;;;;6255707;22;19991;-94
2021/08/01 05:11:10;;;;;;;;;;;;;;;;;;6253222;22;19943;-92
2021/08/01 05:13:36;;;;;;;;;;;;;;;;;;6258582;22;19936;-93
2021/08/01 05:16:01;;;;;;;;;;;;;;;;;;6252714;22;19899;-96
2021/08/01 05:19:00;;;;;;;;;;;;;;;;;;6261662;22;19968;-96
2021/08/01 05:24:00;;;;;;;;;;;;;;;;;;6258353;22;19904;-96
2021/08/01 05:26:26;;;;;;;;;;;;;;;;;;6262209;22;19916;-96
2021/08/01 05:28:52;;;;;;;;;;;;;;;;;;6221286;22;19923;-93
2021/08/01 05:31:22;;;;;;;;;;;;;;;;;;6252206;22;19947;-96
2021/08/01 05:33:49;;;;;;;;;;;;;;;;;;6261924;22;19919;-92
2021/08/01 05:36:14;;;;;;;;;;;;;;;;;;6252819;23;19931;-94
2021/08/01 05:38:40;;;;;;;;;;;;;;;;;;6250310;22;19935;-94
2021/08/01 05:41:05;;;;;;;;;;;;;;;;;;6251424;23;19920;-94
2021/08/01 05:43:39;;;;;;;;;;;;;;;;;;6248320;23;19916;-94
2021/08/01 05:46:05;;;;;;;;;;;;;;;;;;6243507;22;20013;-93
2021/08/01 05:48:30;;;;;;;;;;;;;;;;;;6260315;23;20319;-94
2021/08/01 05:50:56;;;;;;;;;;;;;;;;;;6257514;23;19911;-92
2021/08/01 05:53:21;;;;;;;;;;;;;;;;;;6255446;23;19962;-92
2021/08/01 05:55:48;;;;;;;;;;;;;;;;;;6253929;23;19970;-93
2021/08/01 05:58:14;;;;;;;;;;;;;;;;;;6253806;22;19915;-93
2021/08/01 06:00:39;;;;;;;;;;;;;;;;;;6252687;23;19955;-93
2021/08/01 06:03:04;;;;;;;;;;;;;;;;;;6257471;22;19942;-92
2021/08/01 06:05:30;;;;;;;;;;;;;;;;;;6252570;23;19955;-92
2021/08/01 06:07:55;;;;;;;;;;;;;;;;;;6253118;22;19923;-93
2021/08/01 06:10:21;;;;;;;;;;;;;;;;;;6253200;23;20323;-92
2021/08/01 06:12:46;;;;;;;;;;;;;;;;;;6251622;23;19912;-93
2021/08/01 06:15:12;;;;;;;;;;;;;;;;;;6250655;23;19912;-94
2021/08/01 06:17:37;;;;;;;;;;;;;;;;;;6247443;23;19938;-94
2021/08/01 06:20:03;;;;;;;;;;;;;;;;;;6250176;23;19915;-94
2021/08/01 06:22:28;;;;;;;;;;;;;;;;;;6251568;23;19919;-93
2021/08/01 06:24:53;;;;;;;;;;;;;;;;;;6247832;23;19978;-93
2021/08/01 06:27:19;;;;;;;;;;;;;;;;;;6250163;23;19918;-93
2021/08/01 06:29:44;;;;;;;;;;;;;;;;;;6251924;22;19958;-96
2021/08/01 06:32:10;;;;;;;;;;;;;;;;;;6245589;23;19938;-96
2021/08/01 06:34:35;;;;;;;;;;;;;;;;;;6247674;23;19929;-92
2021/08/01 06:37:03;;;;;;;;;;;;;;;;;;6255467;23;19912;-92
2021/08/01 06:39:29;;;;;;;;;;;;;;;;;;6253088;23;20331;-92
2021/08/01 06:41:54;;;;;;;;;;;;;;;;;;6254171;23;19942;-92
2021/08/01 06:44:20;;;;;;;;;;;;;;;;;;6254025;22;19912;-92
2021/08/01 06:46:45;;;;;;;;;;;;;;;;;;6259839;23;19919;-92
2021/08/01 06:49:10;;;;;;;;;;;;;;;;;;6258491;22;19935;-92
2021/08/01 06:51:36;;;;;;;;;;;;;;;;;;6258010;23;19920;-92
2021/08/01 06:54:01;;;;;;;;;;;;;;;;;;6261953;23;19955;-95
2021/08/01 06:56:26;;;;;;;;;;;;;;;;;;6257576;23;19911;-92
2021/08/01 06:58:56;;;;;;;;;;;;;;;;;;6253299;23;19977;-94
2021/08/01 07:01:21;;;;;;;;;;;;;;;;;;6259269;23;20328;-94
2021/08/01 07:03:47;;;;;;;;;;;;;;;;;;6263900;23;19924;-93
2021/08/01 07:06:12;;;;;;;;;;;;;;;;;;6254684;22;19911;-92
2021/08/01 07:08:38;;;;;;;;;;;;;;;;;;6260388;23;19915;-96
2021/08/01 07:11:03;;;;;;;;;;;;;;;;;;6252654;23;19912;-93
2021/08/01 07:13:29;;;;;;;;;;;;;;;;;;6256609;23;20319;-92
2021/08/01 07:15:59;;;;;;;;;;;;;;;;;;6257965;23;19912;-93
2021/08/01 07:18:27;;;;;;;;;;;;;;;;;;6253498;22;19911;-93
2021/08/01 07:20:53;;;;;;;;;;;;;;;;;;6255914;23;19921;-92
2021/08/01 07:23:18;;;;;;;;;;;;;;;;;;6258719;23;19935;-92
2021/08/01 07:25:43;;;;;;;;;;;;;;;;;;6250426;23;20242;-93
2021/08/01 07:28:09;;;;;;;;;;;;;;;;;;6258459;23;19919;-93
2021/08/01 07:30:34;;;;;;;;;;;;;;;;;;6251821;22;20320;-92
2021/08/01 07:33:00;;;;;;;;;;;;;;;;;;6246717;23;19991;-91
2021/08/01 07:35:25;;;;;;;;;;;;;;;;;;6247806;23;19970;-92
2021/08/01 07:37:51;;;;;;;;;;;;;;;;;;6245665;23;19912;-93
2021/08/01 07:40:16;;;;;;;;;;;;;;;;;;6248197;23;19911;-92
2021/08/01 07:42:41;;;;;;;;;;;;;;;;;;6247549;23;19912;-96
2021/08/01 07:45:15;;;;;;;;;;;;;;;;;;6245922;23;19915;-92
2021/08/01 07:47:41;;;;;;;;;;;;;;;;;;6248357;23;19973;-94
2021/08/01 07:50:09;;;;;;;;;;;;;;;;;;6248096;23;20319;-96
2021/08/01 07:52:35;;;;;;;;;;;;;;;;;;6249194;22;19912;-96
2021/08/01 07:55:01;;;;;;;;;;;;;;;;;;6251626;23;19938;-96
2021/08/01 07:57:27;;;;;;;;;;;;;;;;;;6250724;23;19912;-96
2021/08/01 07:59:53;;;;;;;;;;;;;;;;;;6247994;23;19912;-94
2021/08/01 08:02:19;;;;;;;;;;;;;;;;;;6251237;23;19912;-96
2021/08/01 08:04:44;;;;;;;;;;;;;;;;;;6248201;23;19908;-96
2021/08/01 08:07:10;;;;;;;;;;;;;;;;;;6248728;23;19919;-96
2021/08/01 08:09:35;;;;;;;;;;;;;;;;;;6247530;23;19932;-96
2021/08/01 08:12:01;;;;;;;;;;;;;;;;;;6248956;23;19912;-96
2021/08/01 08:14:27;;;;;;;;;;;;;;;;;;6250999;23;19959;-96
2021/08/01 08:16:52;;;;;;;;;;;;;;;;;;6251809;23;19982;-93
2021/08/01 08:19:18;;;;;;;;;;;;;;;;;;6248064;23;19920;-96
2021/08/01 08:21:43;;;;;;;;;;;;;;;;;;6251797;23;19920;-93
2021/08/01 08:24:08;;;;;;;;;;;;;;;;;;6249213;23;20209;-96
2021/08/01 08:26:34;;;;;;;;;;;;;;;;;;6246863;23;19986;-92
2021/08/01 08:28:59;;;;;;;;;;;;;;;;;;6246897;23;19915;-94
2021/08/01 08:31:24;;;;;;;;;;;;;;;;;;6246101;23;19918;-96
2021/08/01 08:33:50;;;;;;;;;;;;;;;;;;6250442;23;19915;-93
2021/08/01 08:36:15;;;;;;;;;;;;;;;;;;6249945;23;19922;-95
2021/08/01 08:38:44;;;;;;;;;;;;;;;;;;6254562;23;19911;-93
2021/08/01 08:41:16;;;;;;;;;;;;;;;;;;6263939;23;19943;-93
2021/08/01 08:43:59;;;;;;;;;;;;;;;;;;6262743;22;19920;-95
2021/08/01 08:46:26;;;;;;;;;;;;;;;;;;6249975;23;20244;-96
2021/08/01 08:48:54;;;;;;;;;;;;;;;;;;6248156;23;19999;-94
2021/08/01 08:51:19;;;;;;;;;;;;;;;;;;6245485;23;19919;-96
2021/08/01 08:53:48;;;;;;;;;;;;;;;;;;6248359;23;20338;-94
2021/08/01 08:56:15;;;;;;;;;;;;;;;;;;6248711;23;19911;-94
2021/08/01 08:58:41;;;;;;;;;;;;;;;;;;6246265;23;19981;-94
2021/08/01 09:01:06;;;;;;;;;;;;;;;;;;6246358;23;20220;-95
2021/08/01 09:03:31;;;;;;;;;;;;;;;;;;6237394;23;19938;-92
2021/08/01 09:05:59;;;;;;;;;;;;;;;;;;6242379;23;19908;-92
2021/08/01 09:08:25;;;;;;;;;;;;;;;;;;6248150;23;19912;-96
2021/08/01 09:10:58;;;;;;;;;;;;;;;;;;6246012;23;19911;-96
2021/08/01 09:13:43;;;;;;;;;;;;;;;;;;6244641;23;19915;-92
2021/08/01 09:16:09;;;;;;;;;;;;;;;;;;6246547;23;19911;-92
2021/08/01 09:18:34;;;;;;;;;;;;;;;;;;6244987;23;19992;-95
2021/08/01 09:20:59;;;;;;;;;;;;;;;;;;6247699;23;19916;-91
2021/08/01 09:23:25;;;;;;;;;;;;;;;;;;6247571;23;19931;-93
2021/08/01 09:25:58;;;;;;;;;;;;;;;;;;6244574;23;19946;-92
2021/08/01 09:28:24;;;;;;;;;;;;;;;;;;6247841;23;20384;-92
2021/08/01 09:30:54;;;;;;;;;;;;;;;;;;6248369;23;19911;-92
2021/08/01 09:33:28;;;;;;;;;;;;;;;;;;6245634;23;20325;-96
2021/08/01 09:36:07;;;;;;;;;;;;;;;;;;6247347;23;19918;-96
2021/08/01 09:38:42;;;;;;;;;;;;;;;;;;6245721;23;19911;-95
2021/08/01 09:41:08;;;;;;;;;;;;;;;;;;6245763;23;19916;-91
2021/08/01 09:43:33;;;;;;;;;;;;;;;;;;6246700;23;20449;-91
2021/08/01 09:45:59;;;;;;;;;;;;;;;;;;6245497;23;20268;-92
2021/08/01 09:48:24;;;;;;;;;;;;;;;;;;6246415;23;19966;-91
2021/08/01 09:50:59;;;;;;;;;;;;;;;;;;6247532;22;19911;-96
2021/08/01 09:53:26;;;;;;;;;;;;;;;;;;6246773;22;19911;-92
2021/08/01 09:56:10;;;;;;;;;;;;;;;;;;6247551;23;19931;-96
2021/08/01 09:58:36;;;;;;;;;;;;;;;;;;6244430;23;19939;-92
2021/08/01 10:01:01;;;;;;;;;;;;;;;;;;6247568;22;19912;-91
2021/08/01 10:03:39;;;;;;;;;;;;;;;;;;6246377;23;19943;-91
2021/08/01 10:06:17;;;;;;;;;;;;;;;;;;6244842;23;19912;-91
2021/08/01 10:08:50;;;;;;;;;;;;;;;;;;6252420;23;19911;-96
2021/08/01 10:19:14;;;;;;;;;;;;;;;;;;4956780;27;90558;-77
2021/08/01 10:21:42;;;;;;;;;;;;;;;;;;5033670;28;20384;-77
2021/08/01 10:24:10;;;;;;;;;;;;;;;;;;5033678;28;19925;-75
2021/08/01 10:26:37;;;;;;;;;;;;;;;;;;5032320;28;19917;-78
2021/08/01 10:29:06;;;;;;;;;;;;;;;;;;5028660;28;19929;-81
2021/08/01 10:31:36;;;;;;;;;;;;;;;;;;5022279;28;20269;-75
2021/08/01 10:36:35;;;;;;;;;;;;;;;;;;4970236;27;19994;-73
2021/08/01 10:41:33;;;;;;;;;;;;;;;;;;5077541;27;19931;-72
2021/08/01 10:44:04;;;;;;;;;;;;;;;;;;5107665;28;19951;-74
2021/08/01 10:46:29;;;;;;;;;;;;;;;;;;5106281;28;19995;-72
2021/08/01 10:51:38;;;;;;;;;;;;;;;;;;5041202;27;19925;-61
2021/08/01 10:54:15;;;;;;;;;;;;;;;;;;5027165;28;20050;-77
2021/08/01 10:56:42;;;;;;;6.57;3.78;;;;;;;;;;5027317;28;20428;-82
2021/08/01 11:02:16;;;;;;;10.18;4.10;;;;;;;;;;4952262;27;20429;-75
2021/08/01 11:04:44;;;;;;;14.18;6.25;;;;;;;;;;5023512;28;20062;-72
2021/08/01 11:07:10;;;;;;;13.48;6.72;;;;;;;;;;5029862;28;20041;-71
2021/08/01 11:09:36;;;;;;;11.82;5.57;;;;;;;;;;5011461;28;20470;-71
2021/08/01 11:12:32;;;;;;;8.40;5.88;;;;;;;;;;5008947;28;20639;-72
2021/08/01 11:15:01;;;;;;;10.25;5.32;;;;;;;;;;5005623;28;20053;-79
2021/08/01 11:17:48;;;;;;;9.75;5.40;;;;;;;;;;5009644;28;20053;-77
2021/08/01 11:20:16;;;;;;;9.73;5.10;;;;;;;;;;5006426;28;20112;-71
2021/08/01 11:22:44;;;;;;;8.48;4.95;;;;;;;;;;5009372;28;20385;-76
2021/08/01 11:25:28;;;;;;;7.50;5.00;;;;;;;;;;5008003;28;20026;-78
2021/08/01 11:30:52;;;;;;;8.57;4.53;;;;;;;;;;5009472;28;20426;-77
2021/08/01 11:33:38;;;;;;;5.85;4.40;;;;;;;;;;5007870;28;20062;-77
2021/08/01 11:36:30;;;;;;;7.00;4.00;;;;;;;;;;5009499;28;20029;-72
2021/08/01 11:38:56;;;;;;;11.73;4.47;;;;;;;;;;5003326;28;20030;-74
2021/08/01 11:41:33;;;;;;;9.75;4.68;;;;;;;;;;5008934;28;20038;-73
2021/08/01 11:44:03;;;;;;;8.70;4.35;;;;;;;;;;5009038;28;20052;-73
2021/08/01 11:46:59;;;;;;;10.90;4.85;;;;;;;;;;5007533;28;20026;-83
2021/08/01 11:49:29;;;;;;;8.80;4.47;;;;;;;;;;5008638;28;20507;-71
2021/08/01 11:51:56;;;;;;;6.70;3.85;;;;;;;;;;5008047;28;20410;-74
2021/08/01 11:54:38;;;;;;;7.60;3.47;;;;;;;;;;5009140;28;20176;-71
2021/08/01 11:57:11;;;;;;;8.52;3.55;;;;;;;;;;5009571;28;20032;-71
2021/08/01 11:59:38;;;;;;;7.15;3.50;;;;;;;;;;5006868;28;20041;-72
2021/08/01 12:02:11;;;;;;;4.68;3.25;;;;;;;;;;5009476;28;20038;-72
2021/08/01 12:04:38;;;;;;;6.20;3.55;;;;;;;;;;5007995;28;20030;-73
2021/08/01 12:07:04;;;;;;;5.32;3.70;;;;;;;;;;5008871;28;20026;-71
2021/08/01 12:09:38;;;;;;;5.55;3.63;;;;;;;;;;5009237;28;20128;-73
2021/08/01 12:12:05;;;;;;;7.47;3.17;;;;;;;;;;4999031;28;20026;-85
2021/08/01 12:14:34;;;;;;;4.22;3.10;;;;;;;;;;4995568;28;20033;-82
2021/08/01 12:17:11;;;;;;;4.72;3.63;;;;;;;;;;4996225;28;20029;-74
2021/08/01 12:19:40;;;;;;;5.82;3.53;;;;;;;;;;4994526;28;20029;-83
2021/08/01 12:22:14;;;;;;;6.10;3.90;;;;;;;;;;4975922;28;20038;-74
2021/08/01 12:24:41;;;;;;;6.40;3.97;;;;;;;;;;4982170;28;20026;-85
2021/08/01 12:27:16;;;;;;;5.72;3.45;;;;;;;;;;4991685;28;20037;-73
2021/08/01 12:29:44;;;;;;;7.20;4.20;;;;;;;;;;4956249;28;20114;-71
2021/08/01 12:32:30;;;;;;;6.85;3.42;;;;;;;;;;5026399;28;20052;-72
2021/08/01 12:35:07;;;;;;;6.30;4.03;;;;;;;;;;5014360;28;20100;-70
2021/08/01 12:38:05;;;;;;;4.55;3.17;;;;;;;;;;5014362;28;20025;-70
2021/08/01 12:40:34;;;;;;;7.15;4.10;;;;;;;;;;5015035;28;20543;-72
2021/08/01 12:47:15;;;;;;;5.90;3.72;;;;;;;;;;5031380;27;1453700;-89
2021/08/01 12:49:41;;;;;;;6.97;4.13;;;;;;;;;;5073370;22;20034;-91
2021/08/01 12:52:07;;;;;;;5.13;3.78;;;;;;;;;;5044959;28;20064;-94
2021/08/01 12:54:33;;;;;;;6.30;3.72;;;;;;;;;;5018783;28;20123;-92
2021/08/01 12:57:09;;;;;;;8.45;3.90;;;;;;;;;;5017228;28;20044;-96
2021/08/01 12:59:36;;;;;;;5.45;3.35;;;;;;;;;;5030004;28;20033;-96
2021/08/01 13:02:04;;;;;;;6.18;4.07;;;;;;;;;;5026736;28;20013;-94
2021/08/01 13:04:51;;;;;;;5.30;3.50;;;;;;;;;;5039130;23;20038;-94
2021/08/01 13:07:17;;;;;;;5.55;3.75;;;;;;;;;;5032420;28;20113;-94
2021/08/01 13:09:47;;;;;;;4.40;2.95;;;;;;;;;;5059241;23;20069;-95
2021/08/01 13:12:16;;;;;;;4.35;3.38;;;;;;;;;;5059990;28;20024;-95
2021/08/01 13:14:44;;;;;;;5.90;3.13;;;;;;;;;;5058883;28;20029;-95
2021/08/01 13:17:13;;;;;;;6.53;3.58;;;;;;;;;;5060974;28;20028;-94
2021/08/01 13:19:44;;;;;;;5.75;3.80;;;;;;;;;;5062753;28;20025;-94
2021/08/01 13:22:17;;;;;;;5.78;3.53;;;;;;;;;;5040941;28;20049;-93
2021/08/01 13:24:56;;;;;;;6.88;4.15;;;;;;;;;;5045682;28;20005;-93
2021/08/01 13:27:22;;;;;;;5.40;3.55;;;;;;;;;;5039692;28;20092;-95
2021/08/01 13:29:49;;;;;;;5.22;4.10;;;;;;;;;;5041298;28;20064;-93
2021/08/01 13:32:20;;;;;;;6.55;3.58;;;;;;;;;;5043747;28;20422;-94
2021/08/01 13:34:53;;;;;;;5.95;3.38;;;;;;;;;;5042776;28;20067;-92
2021/08/01 13:37:27;;;;;;;5.68;3.35;;;;;;;;;;5063680;28;20013;-94
2021/08/01 13:39:55;;;;;;;9.93;4.63;;;;;;;;;;5044130;28;20059;-94
2021/08/01 13:42:45;;;;;;;7.45;3.25;;;;;;;;;;5046097;28;20028;-95
2021/08/01 13:45:23;;;;;;;4.57;3.03;;;;;;;;;;5062305;28;20037;-94
2021/08/01 13:47:54;;;;;;;7.03;3.45;;;;;;;;;;5070833;28;20108;-93
2021/08/01 13:50:26;;;;;;;7.22;4.43;;;;;;;;;;5052330;28;20021;-93
2021/08/01 13:52:53;;;;;;;6.28;3.53;;;;;;;;;;5055562;28;20021;-96
2021/08/01 13:55:19;;;;;;;6.80;4.05;;;;;;;;;;5052430;28;20025;-94
2021/08/01 13:57:47;;;;;;;6.97;3.85;;;;;;;;;;5038571;28;20025;-95
2021/08/01 14:00:13;;;;;;;7.65;3.92;;;;;;;;;;5037393;28;20017;-96
2021/08/01 14:02:40;;;;;;;10.43;4.40;;;;;;;;;;5046023;28;20053;-95
2021/08/01 14:05:06;;;;;;;6.57;3.65;;;;;;;;;;5043703;28;20025;-95
2021/08/01 14:07:32;;;;;;;5.93;3.60;;;;;;;;;;5028652;28;20404;-95
2021/08/01 14:09:58;;;;;;;5.88;3.88;;;;;;;;;;5021315;23;20052;-96
2021/08/01 14:18:24;;;;;;;5.82;3.63;;;;;;;;;;4960144;28;20093;-96
2021/08/01 14:20:50;;;;;;;5.93;3.75;;;;;;;;;;4953783;28;20099;-96
2021/08/01 14:23:16;;;;;;;5.80;3.67;;;;;;;;;;4956984;29;20493;-93
2021/08/01 14:25:43;;;;;;;6.63;3.80;;;;;;;;;;4955655;29;20035;-95
2021/08/01 14:28:12;;;;;;;6.28;3.30;;;;;;;;;;4956166;29;20037;-92
2021/08/01 14:30:39;;;;;;;6.50;3.60;;;;;;;;;;4956570;29;20035;-94
2021/08/01 14:33:06;;;;;;;7.15;3.85;;;;;;;;;;4943516;29;20102;-95
2021/08/01 14:35:35;;;;;;;7.05;3.92;;;;;;;;;;4966405;28;20023;-95
2021/08/01 15:17:33;;;;;;;5.43;3.72;;;;;;;;;;4989488;23;20309;-95
2021/08/01 15:20:07;;;;;;;7.45;3.42;;;;;;;;;;4965234;28;20405;-94
2021/08/01 15:23:17;;;;;;;5.35;3.55;;;;;;;;;;4973650;23;20035;-94
2021/08/01 15:25:49;;;;;;;5.45;3.63;;;;;;;;;;4964713;28;20047;-96
2021/08/01 15:28:24;;;;;;;5.30;3.42;;;;;;;;;;4994699;23;20045;-96
2021/08/01 15:31:17;;;;;;;6.72;3.78;;;;;;;;;;5004792;28;20042;-96
2021/08/01 15:33:55;;;;;;;8.05;4.07;;;;;;;;;;5003409;28;20050;-96
2021/08/01 15:36:27;;;;;;;7.13;3.70;;;;;;;;;;5006686;23;20049;-94
2021/08/01 15:38:56;;;;;;;5.28;3.42;;;;;;;;;;5011375;28;20503;-95
2021/08/01 15:41:24;;;;;;;5.47;3.42;;;;;;;;;;5005518;28;20032;-95
2021/08/01 15:43:59;;;;;;;6.95;3.60;;;;;;;;;;5017909;28;20044;-96
2021/08/01 15:46:28;;;;;;;6.95;3.78;;;;;;;;;;5003228;28;20070;-94
2021/08/01 15:49:03;;;;;;;6.75;4.03;;;;;;;;;;5012432;28;20469;-95
2021/08/01 15:51:57;;;;;;;8.25;3.70;;;;;;;;;;5021214;28;20040;-96
2021/08/01 15:54:37;;;;;;;7.32;3.95;;;;;;;;;;5007290;28;20026;-95
2021/08/01 15:57:15;;;;;;;6.25;3.28;;;;;;;;;;5013782;28;20041;-96
2021/08/01 16:00:08;;;;;;;6.63;3.70;;;;;;;;;;5004041;28;20053;-95
2021/08/01 16:03:12;;;;;;;9.73;3.97;;;;;;;;;;5008685;28;20030;-96
2021/08/01 16:05:38;;;;;;;8.30;4.22;;;;;;;;;;5024692;28;20107;-93
2021/08/01 16:08:26;;;;;;;6.00;3.38;;;;;;;;;;5090265;23;20034;-94
2021/08/01 16:11:00;;;;;;;6.07;3.30;;;;;;;;;;5031167;23;20050;-95
2021/08/01 16:13:36;;;;;;;7.55;3.42;;;;;;;;;;5002959;28;20117;-96
2021/08/01 16:16:03;;;;;;;4.70;3.33;;;;;;;;;;5003030;28;20041;-96
2021/08/01 16:18:31;;;;;;;9.52;3.60;;;;;;;;;;5000331;28;20018;-94
2021/08/01 16:20:59;;;;;;;6.50;3.42;;;;;;;;;;5000308;28;20154;-95
2021/08/01 16:23:25;;;;;;;5.47;3.20;;;;;;;;;;5005120;23;20080;-95
2021/08/01 16:25:52;;;;;;;8.07;3.40;;;;;;;;;;4998106;28;20125;-94
2021/08/01 16:28:19;;;;;;;6.72;4.43;;;;;;;;;;4998613;28;20034;-96
2021/08/01 16:30:49;;;;;;;6.65;3.05;;;;;;;;;;5002355;28;20022;-94
2021/08/01 16:33:17;;;;;;;5.72;3.00;;;;;;;;;;4997805;28;20077;-94
2021/08/01 16:35:43;;;;;;;4.70;3.05;;;;;;;;;;4997784;28;20017;-94
2021/08/01 16:38:18;;;;;;;5.18;3.03;;;;;;;;;;4996448;28;20113;-95
2021/08/01 16:41:07;;;;;;;4.20;2.83;;;;;;;;;;4995129;28;20026;-94
2021/08/01 16:44:09;;;;;;;7.10;3.00;;;;;;;;;;4996590;28;20068;-95
2021/08/01 16:46:41;;;;;;;6.63;3.55;;;;;;;;;;4971379;28;20047;-94
2021/08/01 16:49:13;;;;;;;5.13;3.50;;;;;;;;;;5000596;28;20093;-96
2021/08/01 16:51:48;;;;;;;5.35;3.33;;;;;;;;;;5002032;28;20370;-95
2021/08/01 16:54:43;;;;;;;7.40;3.30;;;;;;;;;;4998372;28;20022;-96
2021/08/01 16:57:20;;;;;;;4.95;3.03;;;;;;;;;;5003238;28;20027;-96
2021/08/01 16:59:51;;;;;;;5.85;3.38;;;;;;;;;;5002282;28;20023;-96
2021/08/01 17:02:26;;;;;;;6.07;3.38;;;;;;;;;;5004244;28;20042;-94
2021/08/01 17:04:53;;;;;;;5.57;3.17;;;;;;;;;;4995861;28;20472;-95
2021/08/01 17:07:32;;;;;;;5.10;3.50;;;;;;;;;;4995296;28;20022;-94
2021/08/01 17:09:59;;;;;;;6.70;3.60;;;;;;;;;;4996164;28;20033;-94
2021/08/01 17:12:26;;;;;;;4.93;3.28;;;;;;;;;;4999161;28;20031;-96
2021/08/01 17:17:36;;;;;;;5.82;3.30;;;;;;;;;;5114152;23;20072;-95
2021/08/01 17:20:02;;;;;;;5.90;3.60;;;;;;;;;;5001414;28;20103;-96
2021/08/01 17:22:32;;;;;;;5.88;4.15;;;;;;;;;;5005962;28;20045;-96
2021/08/01 17:25:02;;;;;;;5.30;3.72;;;;;;;;;;5001096;28;20050;-96
2021/08/01 17:27:34;;;;;;;4.72;3.80;;;;;;;;;;4994816;28;20038;-96
2021/08/01 17:30:00;;;;;;;7.68;4.03;;;;;;;;;;5002726;28;20030;-94
2021/08/01 17:32:37;;;;;;;4.97;3.17;;;;;;;;;;5002191;28;20080;-95
2021/08/01 17:35:06;;;;;;;4.60;3.38;;;;;;;;;;5005028;28;20069;-94